sensor_id;sensor_type;location;lat;lon;timestamp;P1;durP1;ratioP1;P2;durP2;ratioP2
2646;SDS011;1333;50.958;6.770;2023-05-31T00:01:07;5.07;;;4.00;;
2646;SDS011;1333;50.958;6.770;2023-05-31T00:03:33;9.50;;;4.20;;
2646;SDS011;1333;50.958;6.770;2023-05-31T00:06:00;12.93;;;3.43;;
2646;SDS011;1333;50.958;6.770;2023-05-31T00:08:25;3.93;;;3.20;;
2646;SDS011;1333;50.958;6.770;2023-05-31T00:10:51;7.33;;;4.47;;
2646;SDS011;1333;50.958;6.770;2023-05-31T00:13:16;6.87;;;3.63;;
2646;SDS011;1333;50.958;6.770;2023-05-31T00:15:42;4.67;;;3.63;;
2646;SDS011;1333;50.958;6.770;2023-05-31T00:18:07;6.33;;;3.30;;
2646;SDS011;1333;50.958;6.770;2023-05-31T00:20:33;4.33;;;3.40;;
2646;SDS011;1333;50.958;6.770;2023-05-31T00:22:58;6.83;;;3.77;;
2646;SDS011;1333;50.958;6.770;2023-05-31T00:25:24;5.80;;;4.43;;
2646;SDS011;1333;50.958;6.770;2023-05-31T00:27:50;5.90;;;3.33;;
2646;SDS011;1333;50.958;6.770;2023-05-31T00:30:16;5.23;;;3.63;;
2646;SDS011;1333;50.958;6.770;2023-05-31T00:32:42;5.23;;;3.40;;
2646;SDS011;1333;50.958;6.770;2023-05-31T00:35:07;6.07;;;4.60;;
2646;SDS011;1333;50.958;6.770;2023-05-31T00:37:33;7.30;;;4.43;;
2646;SDS011;1333;50.958;6.770;2023-05-31T00:40:03;7.73;;;4.77;;
2646;SDS011;1333;50.958;6.770;2023-05-31T00:42:30;8.30;;;5.70;;
2646;SDS011;1333;50.958;6.770;2023-05-31T00:44:56;5.17;;;3.07;;
2646;SDS011;1333;50.958;6.770;2023-05-31T00:47:22;6.20;;;4.43;;
2646;SDS011;1333;50.958;6.770;2023-05-31T00:49:48;9.97;;;4.90;;
2646;SDS011;1333;50.958;6.770;2023-05-31T00:52:14;7.57;;;5.03;;
2646;SDS011;1333;50.958;6.770;2023-05-31T00:54:39;6.27;;;4.37;;
2646;SDS011;1333;50.958;6.770;2023-05-31T00:57:05;6.60;;;4.73;;
2646;SDS011;1333;50.958;6.770;2023-05-31T00:59:31;8.77;;;4.30;;
2646;SDS011;1333;50.958;6.770;2023-05-31T01:01:57;5.90;;;4.70;;
2646;SDS011;1333;50.958;6.770;2023-05-31T01:04:24;6.17;;;3.80;;
2646;SDS011;1333;50.958;6.770;2023-05-31T01:06:50;6.80;;;3.83;;
2646;SDS011;1333;50.958;6.770;2023-05-31T01:09:16;8.13;;;5.47;;
2646;SDS011;1333;50.958;6.770;2023-05-31T01:11:50;10.30;;;6.30;;
2646;SDS011;1333;50.958;6.770;2023-05-31T01:22:13;16.30;;;5.23;;
2646;SDS011;1333;50.958;6.770;2023-05-31T01:27:36;7.67;;;4.63;;
2646;SDS011;1333;50.958;6.770;2023-05-31T01:30:03;5.00;;;4.37;;
2646;SDS011;1333;50.958;6.770;2023-05-31T01:32:30;6.40;;;4.40;;
2646;SDS011;1333;50.958;6.770;2023-05-31T01:34:57;7.50;;;4.40;;
2646;SDS011;1333;50.958;6.770;2023-05-31T01:37:22;5.80;;;4.13;;
2646;SDS011;1333;50.958;6.770;2023-05-31T01:39:48;11.83;;;4.87;;
2646;SDS011;1333;50.958;6.770;2023-05-31T01:42:15;7.60;;;4.77;;
2646;SDS011;1333;50.958;6.770;2023-05-31T01:44:42;6.60;;;4.10;;
2646;SDS011;1333;50.958;6.770;2023-05-31T01:47:08;11.07;;;5.63;;
2646;SDS011;1333;50.958;6.770;2023-05-31T01:49:37;6.37;;;5.13;;
2646;SDS011;1333;50.958;6.770;2023-05-31T01:52:05;6.00;;;4.43;;
2646;SDS011;1333;50.958;6.770;2023-05-31T01:54:33;8.17;;;5.60;;
2646;SDS011;1333;50.958;6.770;2023-05-31T01:56:58;7.50;;;4.27;;
2646;SDS011;1333;50.958;6.770;2023-05-31T01:59:28;7.03;;;4.40;;
2646;SDS011;1333;50.958;6.770;2023-05-31T02:01:55;7.60;;;5.90;;
2646;SDS011;1333;50.958;6.770;2023-05-31T02:04:21;10.87;;;5.00;;
2646;SDS011;1333;50.958;6.770;2023-05-31T02:06:46;7.77;;;5.33;;
2646;SDS011;1333;50.958;6.770;2023-05-31T02:09:12;7.70;;;5.77;;
2646;SDS011;1333;50.958;6.770;2023-05-31T02:11:37;9.77;;;5.00;;
2646;SDS011;1333;50.958;6.770;2023-05-31T02:14:03;7.67;;;5.10;;
2646;SDS011;1333;50.958;6.770;2023-05-31T02:16:28;7.93;;;4.87;;
2646;SDS011;1333;50.958;6.770;2023-05-31T02:18:54;8.67;;;5.23;;
2646;SDS011;1333;50.958;6.770;2023-05-31T02:21:21;7.97;;;5.40;;
2646;SDS011;1333;50.958;6.770;2023-05-31T02:23:46;7.83;;;5.17;;
2646;SDS011;1333;50.958;6.770;2023-05-31T02:26:12;8.63;;;5.40;;
2646;SDS011;1333;50.958;6.770;2023-05-31T02:28:37;7.30;;;5.00;;
2646;SDS011;1333;50.958;6.770;2023-05-31T02:31:03;7.00;;;4.67;;
2646;SDS011;1333;50.958;6.770;2023-05-31T02:33:29;9.90;;;5.20;;
2646;SDS011;1333;50.958;6.770;2023-05-31T02:35:55;8.57;;;5.40;;
2646;SDS011;1333;50.958;6.770;2023-05-31T02:38:24;10.47;;;5.83;;
2646;SDS011;1333;50.958;6.770;2023-05-31T02:40:50;7.07;;;4.83;;
2646;SDS011;1333;50.958;6.770;2023-05-31T02:43:16;8.80;;;4.60;;
2646;SDS011;1333;50.958;6.770;2023-05-31T02:45:41;6.87;;;4.57;;
2646;SDS011;1333;50.958;6.770;2023-05-31T02:48:07;7.60;;;4.70;;
2646;SDS011;1333;50.958;6.770;2023-05-31T02:50:33;10.83;;;4.90;;
2646;SDS011;1333;50.958;6.770;2023-05-31T02:52:58;7.83;;;5.30;;
2646;SDS011;1333;50.958;6.770;2023-05-31T02:55:29;10.87;;;6.30;;
2646;SDS011;1333;50.958;6.770;2023-05-31T02:57:55;9.13;;;6.07;;
2646;SDS011;1333;50.958;6.770;2023-05-31T03:00:21;7.00;;;5.40;;
2646;SDS011;1333;50.958;6.770;2023-05-31T03:02:46;6.60;;;5.30;;
2646;SDS011;1333;50.958;6.770;2023-05-31T03:05:12;9.87;;;5.70;;
2646;SDS011;1333;50.958;6.770;2023-05-31T03:07:37;9.77;;;5.43;;
2646;SDS011;1333;50.958;6.770;2023-05-31T03:10:03;9.77;;;6.30;;
2646;SDS011;1333;50.958;6.770;2023-05-31T03:12:30;5.70;;;4.23;;
2646;SDS011;1333;50.958;6.770;2023-05-31T03:14:56;11.93;;;5.33;;
2646;SDS011;1333;50.958;6.770;2023-05-31T03:17:21;7.73;;;4.90;;
2646;SDS011;1333;50.958;6.770;2023-05-31T03:19:47;8.23;;;5.37;;
2646;SDS011;1333;50.958;6.770;2023-05-31T03:22:13;6.93;;;4.20;;
2646;SDS011;1333;50.958;6.770;2023-05-31T03:24:38;7.87;;;5.00;;
2646;SDS011;1333;50.958;6.770;2023-05-31T03:27:05;5.60;;;4.20;;
2646;SDS011;1333;50.958;6.770;2023-05-31T03:29:31;7.27;;;5.30;;
2646;SDS011;1333;50.958;6.770;2023-05-31T03:31:56;9.33;;;5.33;;
2646;SDS011;1333;50.958;6.770;2023-05-31T03:34:22;6.53;;;5.60;;
2646;SDS011;1333;50.958;6.770;2023-05-31T03:36:47;8.60;;;5.47;;
2646;SDS011;1333;50.958;6.770;2023-05-31T03:39:13;6.43;;;4.50;;
2646;SDS011;1333;50.958;6.770;2023-05-31T03:41:39;6.77;;;4.50;;
2646;SDS011;1333;50.958;6.770;2023-05-31T03:44:04;9.20;;;6.20;;
2646;SDS011;1333;50.958;6.770;2023-05-31T03:46:30;5.80;;;5.07;;
2646;SDS011;1333;50.958;6.770;2023-05-31T03:48:55;5.73;;;5.23;;
2646;SDS011;1333;50.958;6.770;2023-05-31T03:51:21;5.77;;;5.17;;
2646;SDS011;1333;50.958;6.770;2023-05-31T03:53:46;7.20;;;4.47;;
2646;SDS011;1333;50.958;6.770;2023-05-31T03:56:12;6.40;;;4.70;;
2646;SDS011;1333;50.958;6.770;2023-05-31T03:58:37;7.30;;;5.30;;
2646;SDS011;1333;50.958;6.770;2023-05-31T04:01:03;7.60;;;5.73;;
2646;SDS011;1333;50.958;6.770;2023-05-31T04:03:29;8.73;;;4.60;;
2646;SDS011;1333;50.958;6.770;2023-05-31T04:05:54;8.00;;;5.63;;
2646;SDS011;1333;50.958;6.770;2023-05-31T04:08:20;8.40;;;5.53;;
2646;SDS011;1333;50.958;6.770;2023-05-31T04:10:45;8.67;;;6.30;;
2646;SDS011;1333;50.958;6.770;2023-05-31T04:13:11;8.30;;;5.50;;
2646;SDS011;1333;50.958;6.770;2023-05-31T04:15:36;7.90;;;4.93;;
2646;SDS011;1333;50.958;6.770;2023-05-31T04:18:02;8.30;;;5.83;;
2646;SDS011;1333;50.958;6.770;2023-05-31T04:20:28;8.23;;;5.03;;
2646;SDS011;1333;50.958;6.770;2023-05-31T04:22:53;12.27;;;5.00;;
2646;SDS011;1333;50.958;6.770;2023-05-31T04:25:19;8.33;;;6.07;;
2646;SDS011;1333;50.958;6.770;2023-05-31T04:27:45;10.57;;;5.20;;
2646;SDS011;1333;50.958;6.770;2023-05-31T04:30:11;10.00;;;5.30;;
2646;SDS011;1333;50.958;6.770;2023-05-31T04:32:37;6.13;;;4.40;;
2646;SDS011;1333;50.958;6.770;2023-05-31T04:35:03;9.30;;;5.77;;
2646;SDS011;1333;50.958;6.770;2023-05-31T04:37:30;14.17;;;5.00;;
2646;SDS011;1333;50.958;6.770;2023-05-31T04:39:56;6.40;;;5.27;;
2646;SDS011;1333;50.958;6.770;2023-05-31T04:42:22;6.90;;;4.67;;
2646;SDS011;1333;50.958;6.770;2023-05-31T04:44:50;8.17;;;5.53;;
2646;SDS011;1333;50.958;6.770;2023-05-31T04:47:16;6.57;;;4.50;;
2646;SDS011;1333;50.958;6.770;2023-05-31T04:49:43;8.13;;;5.43;;
2646;SDS011;1333;50.958;6.770;2023-05-31T04:52:10;8.50;;;5.80;;
2646;SDS011;1333;50.958;6.770;2023-05-31T04:54:36;9.30;;;5.33;;
2646;SDS011;1333;50.958;6.770;2023-05-31T04:57:02;6.83;;;6.03;;
2646;SDS011;1333;50.958;6.770;2023-05-31T04:59:27;10.30;;;5.70;;
2646;SDS011;1333;50.958;6.770;2023-05-31T05:01:53;10.37;;;5.40;;
2646;SDS011;1333;50.958;6.770;2023-05-31T05:04:18;8.43;;;5.10;;
2646;SDS011;1333;50.958;6.770;2023-05-31T05:06:44;6.43;;;4.63;;
2646;SDS011;1333;50.958;6.770;2023-05-31T05:09:09;5.90;;;4.73;;
2646;SDS011;1333;50.958;6.770;2023-05-31T05:11:35;8.80;;;4.70;;
2646;SDS011;1333;50.958;6.770;2023-05-31T05:14:01;6.73;;;4.97;;
2646;SDS011;1333;50.958;6.770;2023-05-31T05:16:26;9.70;;;4.93;;
2646;SDS011;1333;50.958;6.770;2023-05-31T05:18:52;5.93;;;4.90;;
2646;SDS011;1333;50.958;6.770;2023-05-31T05:21:17;10.83;;;5.83;;
2646;SDS011;1333;50.958;6.770;2023-05-31T05:23:43;8.17;;;5.80;;
2646;SDS011;1333;50.958;6.770;2023-05-31T05:26:09;9.70;;;5.53;;
2646;SDS011;1333;50.958;6.770;2023-05-31T05:28:35;5.43;;;4.40;;
2646;SDS011;1333;50.958;6.770;2023-05-31T05:31:01;4.80;;;3.80;;
2646;SDS011;1333;50.958;6.770;2023-05-31T05:33:28;5.53;;;4.03;;
2646;SDS011;1333;50.958;6.770;2023-05-31T05:35:54;5.80;;;4.40;;
2646;SDS011;1333;50.958;6.770;2023-05-31T05:38:19;6.30;;;5.20;;
2646;SDS011;1333;50.958;6.770;2023-05-31T05:40:45;6.53;;;4.70;;
2646;SDS011;1333;50.958;6.770;2023-05-31T05:43:11;8.17;;;5.60;;
2646;SDS011;1333;50.958;6.770;2023-05-31T05:45:36;6.63;;;4.37;;
2646;SDS011;1333;50.958;6.770;2023-05-31T05:48:03;5.20;;;4.50;;
2646;SDS011;1333;50.958;6.770;2023-05-31T05:50:28;5.60;;;4.17;;
2646;SDS011;1333;50.958;6.770;2023-05-31T05:52:54;7.97;;;4.97;;
2646;SDS011;1333;50.958;6.770;2023-05-31T05:55:19;6.80;;;4.60;;
2646;SDS011;1333;50.958;6.770;2023-05-31T05:57:45;5.57;;;4.80;;
2646;SDS011;1333;50.958;6.770;2023-05-31T06:00:11;7.27;;;4.43;;
2646;SDS011;1333;50.958;6.770;2023-05-31T06:02:39;9.70;;;4.73;;
2646;SDS011;1333;50.958;6.770;2023-05-31T06:05:05;5.20;;;3.77;;
2646;SDS011;1333;50.958;6.770;2023-05-31T06:07:31;5.00;;;4.50;;
2646;SDS011;1333;50.958;6.770;2023-05-31T06:09:57;7.63;;;3.83;;
2646;SDS011;1333;50.958;6.770;2023-05-31T06:12:22;4.90;;;4.20;;
2646;SDS011;1333;50.958;6.770;2023-05-31T06:14:48;4.87;;;3.87;;
2646;SDS011;1333;50.958;6.770;2023-05-31T06:17:14;5.90;;;4.50;;
2646;SDS011;1333;50.958;6.770;2023-05-31T06:19:40;6.23;;;3.97;;
2646;SDS011;1333;50.958;6.770;2023-05-31T06:22:05;4.47;;;3.97;;
2646;SDS011;1333;50.958;6.770;2023-05-31T06:24:31;4.50;;;3.00;;
2646;SDS011;1333;50.958;6.770;2023-05-31T06:26:57;3.70;;;3.40;;
2646;SDS011;1333;50.958;6.770;2023-05-31T06:29:22;4.60;;;3.03;;
2646;SDS011;1333;50.958;6.770;2023-05-31T06:31:48;3.87;;;3.50;;
2646;SDS011;1333;50.958;6.770;2023-05-31T06:34:13;3.50;;;3.20;;
2646;SDS011;1333;50.958;6.770;2023-05-31T06:36:40;6.13;;;3.03;;
2646;SDS011;1333;50.958;6.770;2023-05-31T06:39:06;3.30;;;3.00;;
2646;SDS011;1333;50.958;6.770;2023-05-31T06:41:32;5.03;;;3.03;;
2646;SDS011;1333;50.958;6.770;2023-05-31T06:43:59;4.07;;;2.70;;
2646;SDS011;1333;50.958;6.770;2023-05-31T06:46:25;4.40;;;3.87;;
2646;SDS011;1333;50.958;6.770;2023-05-31T06:48:51;5.63;;;3.27;;
2646;SDS011;1333;50.958;6.770;2023-05-31T06:51:17;3.47;;;3.17;;
2646;SDS011;1333;50.958;6.770;2023-05-31T06:53:44;5.23;;;3.80;;
2646;SDS011;1333;50.958;6.770;2023-05-31T06:56:10;4.50;;;3.70;;
2646;SDS011;1333;50.958;6.770;2023-05-31T06:58:35;8.33;;;3.80;;
2646;SDS011;1333;50.958;6.770;2023-05-31T07:01:01;4.20;;;3.57;;
2646;SDS011;1333;50.958;6.770;2023-05-31T07:03:26;4.80;;;3.93;;
2646;SDS011;1333;50.958;6.770;2023-05-31T07:05:52;3.33;;;3.03;;
2646;SDS011;1333;50.958;6.770;2023-05-31T07:08:17;5.40;;;3.57;;
2646;SDS011;1333;50.958;6.770;2023-05-31T07:10:43;4.00;;;3.60;;
2646;SDS011;1333;50.958;6.770;2023-05-31T07:13:10;3.90;;;3.53;;
2646;SDS011;1333;50.958;6.770;2023-05-31T07:15:35;3.73;;;3.30;;
2646;SDS011;1333;50.958;6.770;2023-05-31T07:18:01;3.37;;;3.07;;
2646;SDS011;1333;50.958;6.770;2023-05-31T07:20:27;3.23;;;2.90;;
2646;SDS011;1333;50.958;6.770;2023-05-31T07:22:52;4.00;;;3.20;;
2646;SDS011;1333;50.958;6.770;2023-05-31T07:25:18;3.53;;;3.27;;
2646;SDS011;1333;50.958;6.770;2023-05-31T07:27:43;2.90;;;2.67;;
2646;SDS011;1333;50.958;6.770;2023-05-31T07:30:09;3.47;;;3.10;;
2646;SDS011;1333;50.958;6.770;2023-05-31T07:32:35;4.90;;;3.00;;
2646;SDS011;1333;50.958;6.770;2023-05-31T07:35:01;3.77;;;3.47;;
2646;SDS011;1333;50.958;6.770;2023-05-31T07:37:27;3.77;;;3.37;;
2646;SDS011;1333;50.958;6.770;2023-05-31T07:39:53;5.00;;;3.57;;
2646;SDS011;1333;50.958;6.770;2023-05-31T07:42:18;3.80;;;3.40;;
2646;SDS011;1333;50.958;6.770;2023-05-31T07:44:44;3.83;;;3.27;;
2646;SDS011;1333;50.958;6.770;2023-05-31T07:47:10;7.50;;;3.67;;
2646;SDS011;1333;50.958;6.770;2023-05-31T07:49:35;3.00;;;2.80;;
2646;SDS011;1333;50.958;6.770;2023-05-31T07:52:01;3.10;;;2.90;;
2646;SDS011;1333;50.958;6.770;2023-05-31T07:54:27;3.60;;;3.33;;
2646;SDS011;1333;50.958;6.770;2023-05-31T07:56:52;4.80;;;3.30;;
2646;SDS011;1333;50.958;6.770;2023-05-31T07:59:18;3.43;;;3.13;;
2646;SDS011;1333;50.958;6.770;2023-05-31T08:01:44;3.30;;;2.90;;
2646;SDS011;1333;50.958;6.770;2023-05-31T08:04:11;2.97;;;2.77;;
2646;SDS011;1333;50.958;6.770;2023-05-31T08:06:37;3.50;;;3.27;;
2646;SDS011;1333;50.958;6.770;2023-05-31T08:09:03;3.17;;;2.97;;
2646;SDS011;1333;50.958;6.770;2023-05-31T08:11:32;3.93;;;3.63;;
2646;SDS011;1333;50.958;6.770;2023-05-31T08:14:02;3.40;;;3.20;;
2646;SDS011;1333;50.958;6.770;2023-05-31T08:16:28;3.73;;;3.43;;
2646;SDS011;1333;50.958;6.770;2023-05-31T08:18:54;3.23;;;3.03;;
2646;SDS011;1333;50.958;6.770;2023-05-31T08:21:19;3.83;;;3.40;;
2646;SDS011;1333;50.958;6.770;2023-05-31T08:23:45;4.00;;;3.50;;
2646;SDS011;1333;50.958;6.770;2023-05-31T08:26:11;3.30;;;3.10;;
2646;SDS011;1333;50.958;6.770;2023-05-31T08:28:36;3.63;;;3.40;;
2646;SDS011;1333;50.958;6.770;2023-05-31T08:31:02;4.83;;;4.43;;
2646;SDS011;1333;50.958;6.770;2023-05-31T08:33:28;4.30;;;3.90;;
2646;SDS011;1333;50.958;6.770;2023-05-31T08:35:54;4.83;;;4.00;;
2646;SDS011;1333;50.958;6.770;2023-05-31T08:38:28;3.60;;;3.40;;
2646;SDS011;1333;50.958;6.770;2023-05-31T08:40:54;4.10;;;3.80;;
2646;SDS011;1333;50.958;6.770;2023-05-31T08:43:22;4.13;;;3.83;;
2646;SDS011;1333;50.958;6.770;2023-05-31T08:45:50;4.43;;;4.10;;
2646;SDS011;1333;50.958;6.770;2023-05-31T08:51:02;4.27;;;4.00;;
2646;SDS011;1333;50.958;6.770;2023-05-31T08:53:30;4.40;;;4.00;;
2646;SDS011;1333;50.958;6.770;2023-05-31T08:55:58;5.17;;;4.87;;
2646;SDS011;1333;50.958;6.770;2023-05-31T08:58:26;5.03;;;4.10;;
2646;SDS011;1333;50.958;6.770;2023-05-31T09:00:53;4.17;;;3.80;;
2646;SDS011;1333;50.958;6.770;2023-05-31T09:03:19;3.70;;;3.50;;
2646;SDS011;1333;50.958;6.770;2023-05-31T09:05:47;4.90;;;4.60;;
2646;SDS011;1333;50.958;6.770;2023-05-31T09:08:12;3.90;;;3.67;;
2646;SDS011;1333;50.958;6.770;2023-05-31T09:10:39;3.63;;;3.43;;
2646;SDS011;1333;50.958;6.770;2023-05-31T09:13:05;4.27;;;3.90;;
2646;SDS011;1333;50.958;6.770;2023-05-31T09:15:31;5.03;;;4.63;;
2646;SDS011;1333;50.958;6.770;2023-05-31T09:18:11;4.30;;;4.00;;
2646;SDS011;1333;50.958;6.770;2023-05-31T09:20:41;5.60;;;5.20;;
2646;SDS011;1333;50.958;6.770;2023-05-31T09:23:07;5.67;;;5.00;;
2646;SDS011;1333;50.958;6.770;2023-05-31T09:25:50;4.87;;;4.57;;
2646;SDS011;1333;50.958;6.770;2023-05-31T09:28:20;4.27;;;4.07;;
2646;SDS011;1333;50.958;6.770;2023-05-31T09:33:38;4.13;;;3.93;;
2646;SDS011;1333;50.958;6.770;2023-05-31T09:36:05;4.63;;;4.20;;
2646;SDS011;1333;50.958;6.770;2023-05-31T09:38:31;4.30;;;4.10;;
2646;SDS011;1333;50.958;6.770;2023-05-31T09:41:13;3.97;;;3.77;;
2646;SDS011;1333;50.958;6.770;2023-05-31T09:43:43;3.70;;;3.50;;
2646;SDS011;1333;50.958;6.770;2023-05-31T09:46:19;3.83;;;3.53;;
2646;SDS011;1333;50.958;6.770;2023-05-31T09:48:56;3.87;;;3.57;;
2646;SDS011;1333;50.958;6.770;2023-05-31T09:51:23;4.37;;;4.07;;
2646;SDS011;1333;50.958;6.770;2023-05-31T09:53:48;5.17;;;4.63;;
2646;SDS011;1333;50.958;6.770;2023-05-31T09:56:17;6.63;;;3.60;;
2646;SDS011;1333;50.958;6.770;2023-05-31T09:58:44;4.20;;;3.90;;
2646;SDS011;1333;50.958;6.770;2023-05-31T10:01:10;4.40;;;4.10;;
2646;SDS011;1333;50.958;6.770;2023-05-31T10:03:35;3.50;;;3.20;;
2646;SDS011;1333;50.958;6.770;2023-05-31T10:06:03;3.60;;;3.40;;
2646;SDS011;1333;50.958;6.770;2023-05-31T10:08:29;5.00;;;3.37;;
2646;SDS011;1333;50.958;6.770;2023-05-31T10:10:57;3.80;;;3.70;;
2646;SDS011;1333;50.958;6.770;2023-05-31T10:13:26;3.30;;;3.10;;
2646;SDS011;1333;50.958;6.770;2023-05-31T10:15:53;3.40;;;3.20;;
2646;SDS011;1333;50.958;6.770;2023-05-31T10:18:21;3.37;;;3.17;;
2646;SDS011;1333;50.958;6.770;2023-05-31T10:20:55;5.00;;;3.60;;
2646;SDS011;1333;50.958;6.770;2023-05-31T10:23:56;4.17;;;3.87;;
2646;SDS011;1333;50.958;6.770;2023-05-31T10:26:38;3.63;;;3.43;;
2646;SDS011;1333;50.958;6.770;2023-05-31T10:29:24;3.83;;;3.63;;
2646;SDS011;1333;50.958;6.770;2023-05-31T10:31:54;3.90;;;3.50;;
2646;SDS011;1333;50.958;6.770;2023-05-31T10:34:31;4.20;;;4.00;;
2646;SDS011;1333;50.958;6.770;2023-05-31T10:36:57;4.03;;;3.73;;
2646;SDS011;1333;50.958;6.770;2023-05-31T10:45:20;4.50;;;4.10;;
2646;SDS011;1333;50.958;6.770;2023-05-31T10:50:55;4.83;;;4.03;;
2646;SDS011;1333;50.958;6.770;2023-05-31T10:53:23;3.60;;;3.30;;
2646;SDS011;1333;50.958;6.770;2023-05-31T10:55:57;4.30;;;3.97;;
2646;SDS011;1333;50.958;6.770;2023-05-31T10:58:34;4.57;;;4.10;;
2646;SDS011;1333;50.958;6.770;2023-05-31T11:01:02;4.67;;;4.30;;
2646;SDS011;1333;50.958;6.770;2023-05-31T11:03:45;4.00;;;3.80;;
2646;SDS011;1333;50.958;6.770;2023-05-31T11:06:30;4.60;;;4.30;;
2646;SDS011;1333;50.958;6.770;2023-05-31T11:11:27;4.50;;;4.30;;
2646;SDS011;1333;50.958;6.770;2023-05-31T11:17:12;4.33;;;4.13;;
2646;SDS011;1333;50.958;6.770;2023-05-31T11:19:21;4.20;;;3.90;;
2646;SDS011;1333;50.958;6.770;2023-05-31T11:27:04;3.97;;;3.77;;
2646;SDS011;1333;50.958;6.770;2023-05-31T11:32:09;4.37;;;3.43;;
2646;SDS011;1333;50.958;6.770;2023-05-31T11:34:36;3.40;;;3.20;;
2646;SDS011;1333;50.958;6.770;2023-05-31T11:37:15;3.80;;;3.50;;
2646;SDS011;1333;50.958;6.770;2023-05-31T11:39:44;3.30;;;3.20;;
2646;SDS011;1333;50.958;6.770;2023-05-31T11:42:10;3.33;;;3.13;;
2646;SDS011;1333;50.958;6.770;2023-05-31T11:44:41;4.03;;;3.80;;
2646;SDS011;1333;50.958;6.770;2023-05-31T11:47:11;4.20;;;3.90;;
2646;SDS011;1333;50.958;6.770;2023-05-31T11:49:43;3.73;;;3.53;;
2646;SDS011;1333;50.958;6.770;2023-05-31T11:52:11;4.13;;;3.83;;
2646;SDS011;1333;50.958;6.770;2023-05-31T11:54:41;4.00;;;3.70;;
2646;SDS011;1333;50.958;6.770;2023-05-31T11:57:08;3.87;;;3.50;;
2646;SDS011;1333;50.958;6.770;2023-05-31T11:59:34;3.90;;;3.60;;
2646;SDS011;1333;50.958;6.770;2023-05-31T12:02:01;3.37;;;3.17;;
2646;SDS011;1333;50.958;6.770;2023-05-31T12:04:29;3.47;;;3.20;;
2646;SDS011;1333;50.958;6.770;2023-05-31T12:06:55;3.50;;;3.30;;
2646;SDS011;1333;50.958;6.770;2023-05-31T12:09:26;3.73;;;3.53;;
2646;SDS011;1333;50.958;6.770;2023-05-31T12:11:53;3.70;;;3.50;;
2646;SDS011;1333;50.958;6.770;2023-05-31T12:14:21;3.30;;;3.10;;
2646;SDS011;1333;50.958;6.770;2023-05-31T12:16:47;3.77;;;3.53;;
2646;SDS011;1333;50.958;6.770;2023-05-31T12:19:16;6.47;;;3.97;;
2646;SDS011;1333;50.958;6.770;2023-05-31T12:21:42;3.43;;;3.13;;
2646;SDS011;1333;50.958;6.770;2023-05-31T12:24:12;3.27;;;3.07;;
2646;SDS011;1333;50.958;6.770;2023-05-31T12:26:39;3.70;;;3.50;;
2646;SDS011;1333;50.958;6.770;2023-05-31T12:29:05;3.50;;;3.30;;
2646;SDS011;1333;50.958;6.770;2023-05-31T12:31:33;3.30;;;3.10;;
2646;SDS011;1333;50.958;6.770;2023-05-31T12:36:50;3.70;;;3.40;;
2646;SDS011;1333;50.958;6.770;2023-05-31T12:39:19;3.63;;;3.33;;
2646;SDS011;1333;50.958;6.770;2023-05-31T12:41:47;4.27;;;3.33;;
2646;SDS011;1333;50.958;6.770;2023-05-31T12:44:14;3.47;;;3.27;;
2646;SDS011;1333;50.958;6.770;2023-05-31T12:46:44;3.77;;;3.47;;
2646;SDS011;1333;50.958;6.770;2023-05-31T12:49:21;5.73;;;3.20;;
2646;SDS011;1333;50.958;6.770;2023-05-31T12:52:05;2.93;;;2.73;;
2646;SDS011;1333;50.958;6.770;2023-05-31T12:54:33;4.90;;;4.40;;
2646;SDS011;1333;50.958;6.770;2023-05-31T12:57:00;3.93;;;3.50;;
2646;SDS011;1333;50.958;6.770;2023-05-31T12:59:27;3.20;;;2.97;;
2646;SDS011;1333;50.958;6.770;2023-05-31T13:01:54;4.47;;;3.60;;
2646;SDS011;1333;50.958;6.770;2023-05-31T13:04:20;6.43;;;4.60;;
2646;SDS011;1333;50.958;6.770;2023-05-31T13:06:46;4.00;;;3.70;;
2646;SDS011;1333;50.958;6.770;2023-05-31T13:09:12;3.53;;;2.83;;
2646;SDS011;1333;50.958;6.770;2023-05-31T13:11:39;2.90;;;2.70;;
2646;SDS011;1333;50.958;6.770;2023-05-31T13:14:06;4.90;;;4.23;;
2646;SDS011;1333;50.958;6.770;2023-05-31T13:16:36;3.80;;;2.63;;
2646;SDS011;1333;50.958;6.770;2023-05-31T13:19:05;5.10;;;3.17;;
2646;SDS011;1333;50.958;6.770;2023-05-31T13:21:31;3.07;;;2.70;;
2646;SDS011;1333;50.958;6.770;2023-05-31T13:23:58;2.90;;;2.70;;
2646;SDS011;1333;50.958;6.770;2023-05-31T13:26:24;3.10;;;2.53;;
2646;SDS011;1333;50.958;6.770;2023-05-31T13:28:57;3.37;;;2.57;;
2646;SDS011;1333;50.958;6.770;2023-05-31T13:31:24;2.50;;;2.30;;
2646;SDS011;1333;50.958;6.770;2023-05-31T13:33:50;2.97;;;2.77;;
2646;SDS011;1333;50.958;6.770;2023-05-31T13:36:16;4.97;;;3.17;;
2646;SDS011;1333;50.958;6.770;2023-05-31T13:38:42;2.63;;;2.33;;
2646;SDS011;1333;50.958;6.770;2023-05-31T13:41:08;2.80;;;2.43;;
2646;SDS011;1333;50.958;6.770;2023-05-31T13:43:34;4.37;;;2.53;;
2646;SDS011;1333;50.958;6.770;2023-05-31T13:46:02;1.93;;;1.83;;
2646;SDS011;1333;50.958;6.770;2023-05-31T13:48:28;7.23;;;2.67;;
2646;SDS011;1333;50.958;6.770;2023-05-31T13:50:54;3.13;;;2.57;;
2646;SDS011;1333;50.958;6.770;2023-05-31T13:53:19;4.03;;;3.20;;
2646;SDS011;1333;50.958;6.770;2023-05-31T13:55:46;3.30;;;2.23;;
2646;SDS011;1333;50.958;6.770;2023-05-31T13:58:12;5.90;;;2.50;;
2646;SDS011;1333;50.958;6.770;2023-05-31T14:00:38;3.07;;;2.50;;
2646;SDS011;1333;50.958;6.770;2023-05-31T14:03:03;2.80;;;2.40;;
2646;SDS011;1333;50.958;6.770;2023-05-31T14:05:29;4.43;;;2.47;;
2646;SDS011;1333;50.958;6.770;2023-05-31T14:07:55;2.53;;;2.33;;
2646;SDS011;1333;50.958;6.770;2023-05-31T14:10:21;2.57;;;2.20;;
2646;SDS011;1333;50.958;6.770;2023-05-31T14:12:47;4.27;;;2.30;;
2646;SDS011;1333;50.958;6.770;2023-05-31T14:15:13;2.47;;;2.03;;
2646;SDS011;1333;50.958;6.770;2023-05-31T14:17:39;3.90;;;2.63;;
2646;SDS011;1333;50.958;6.770;2023-05-31T14:20:05;5.00;;;2.23;;
2646;SDS011;1333;50.958;6.770;2023-05-31T14:22:34;3.70;;;2.03;;
2646;SDS011;1333;50.958;6.770;2023-05-31T14:24:59;4.83;;;2.80;;
2646;SDS011;1333;50.958;6.770;2023-05-31T14:27:25;6.43;;;2.70;;
2646;SDS011;1333;50.958;6.770;2023-05-31T14:29:51;3.10;;;2.30;;
2646;SDS011;1333;50.958;6.770;2023-05-31T14:32:16;2.47;;;2.27;;
2646;SDS011;1333;50.958;6.770;2023-05-31T14:34:45;2.20;;;2.00;;
2646;SDS011;1333;50.958;6.770;2023-05-31T14:37:11;3.70;;;2.50;;
2646;SDS011;1333;50.958;6.770;2023-05-31T14:39:37;2.23;;;2.03;;
2646;SDS011;1333;50.958;6.770;2023-05-31T14:42:03;4.57;;;2.50;;
2646;SDS011;1333;50.958;6.770;2023-05-31T14:44:30;3.77;;;2.70;;
2646;SDS011;1333;50.958;6.770;2023-05-31T14:46:57;3.70;;;3.03;;
2646;SDS011;1333;50.958;6.770;2023-05-31T14:49:22;8.30;;;2.73;;
2646;SDS011;1333;50.958;6.770;2023-05-31T14:51:49;5.50;;;2.10;;
2646;SDS011;1333;50.958;6.770;2023-05-31T14:54:15;6.10;;;1.90;;
2646;SDS011;1333;50.958;6.770;2023-05-31T14:56:44;4.13;;;2.57;;
2646;SDS011;1333;50.958;6.770;2023-05-31T14:59:10;4.53;;;2.60;;
2646;SDS011;1333;50.958;6.770;2023-05-31T15:01:36;4.70;;;2.07;;
2646;SDS011;1333;50.958;6.770;2023-05-31T15:04:11;2.43;;;2.10;;
2646;SDS011;1333;50.958;6.770;2023-05-31T15:06:39;4.60;;;2.60;;
2646;SDS011;1333;50.958;6.770;2023-05-31T15:09:06;3.90;;;2.60;;
2646;SDS011;1333;50.958;6.770;2023-05-31T15:11:32;3.83;;;2.27;;
2646;SDS011;1333;50.958;6.770;2023-05-31T15:13:58;2.97;;;2.60;;
2646;SDS011;1333;50.958;6.770;2023-05-31T15:16:24;3.03;;;2.73;;
2646;SDS011;1333;50.958;6.770;2023-05-31T15:18:50;3.00;;;2.20;;
2646;SDS011;1333;50.958;6.770;2023-05-31T15:21:16;2.53;;;2.00;;
2646;SDS011;1333;50.958;6.770;2023-05-31T15:23:42;4.90;;;2.47;;
2646;SDS011;1333;50.958;6.770;2023-05-31T15:26:07;5.07;;;2.73;;
2646;SDS011;1333;50.958;6.770;2023-05-31T15:28:33;3.07;;;2.77;;
2646;SDS011;1333;50.958;6.770;2023-05-31T15:30:59;2.83;;;2.20;;
2646;SDS011;1333;50.958;6.770;2023-05-31T15:33:27;2.37;;;1.90;;
2646;SDS011;1333;50.958;6.770;2023-05-31T15:35:53;1.87;;;1.67;;
2646;SDS011;1333;50.958;6.770;2023-05-31T15:38:19;2.60;;;2.40;;
2646;SDS011;1333;50.958;6.770;2023-05-31T15:40:44;3.27;;;2.33;;
2646;SDS011;1333;50.958;6.770;2023-05-31T15:43:10;3.27;;;2.27;;
2646;SDS011;1333;50.958;6.770;2023-05-31T15:45:36;3.37;;;2.07;;
2646;SDS011;1333;50.958;6.770;2023-05-31T15:48:02;2.63;;;1.80;;
2646;SDS011;1333;50.958;6.770;2023-05-31T15:50:27;6.30;;;2.33;;
2646;SDS011;1333;50.958;6.770;2023-05-31T15:52:53;3.00;;;2.00;;
2646;SDS011;1333;50.958;6.770;2023-05-31T15:55:19;2.27;;;2.07;;